Pagina principale
METAR-TAF:

METAR-TAF

Aeroporti :

Aeroporto di Rivolto

Udine, Italia

latitudine: 45-59N, longitudine: 013-02E, altezza: 51 m

Osservazione

Il bollettino è stato emesso 53 minuti fa, alle 10:55 UTC
Temperature 6°C
Umidità 45%
Pressione 1017 hPa
Visibilità 10 km o più
Poco nuvoloso ad un'altezza di 11000 ft

METAR: LIPI 211055Z /////KT 9999 FEW110 06/M05 Q1017 RMK BKN BKN200 VIS MIN 9999 WIND THR06 06013KT WIND THR24 07015KT BLU

Ora: 12:48 (11:48 UTC)

Previsione

Il bollettino è stato emesso 48 minuti fa, alle 11:00 UTC
Previsione valida dal 21 alle 12 UTC al 21 alle 21 UTC
Vento 15 kt da est/nord-est
Visibilità 10 km o più
Nuvoloso ad un'altezza di 8000 ft

TAF: LIPI 211100Z 2112/2121 07015KT 9999 BKN080

Osservazioni e previsioni meteorologiche di più di 4000 aeroporti (messaggi METAR e TAF).

Le stazioni disponibili sono rappresentate dai dischi gialli e rossi sulla carta.

Puntare il mouse per vedere il nome della stazione.

Clicca sopra per visualizzare le osservazioni e previsioni meteorologiche.

Per cambiare la mappa : fare clic sui pulsanti verdi con una croce nera per ingrandire, il pulsante verde con un trattino per diminuire, o sulla freccia verde per le mappe adiacenti.


METAR-TAF: